world map with MUZ marked

MUZ - Airport

This information may not be accurate or current and is not valid for navigation or flight planning. No warranty of fitness for any purpose is made or implied.

flag of Tanzania

Donate via PayPal

Additional information is available on the NEW Great Circle Mapper

Location
City:  Musoma, Mara, Tanzania
Name:Musoma Airport
ICAO / IATA:HTMU / MUZ

Details
Type:Airport (Aerodrome, Airfield)
Latitude:1°30'09"S (-1.502499)
Longitude:33°48'07"E (33.801944)
Elevation:3806 ft (1160 m)
Runways:1
Longest:5249 ft (1600 m)

Time
Timezone:UTC+3 (DST+5)
Local Time:

Weather
METAR:HTMU  041300Z 28011KT 9999 FEW025 FEW026CB 31/17 Q1011
TAF:HTMU  (expired)

Related Locations
Nearby:
Farthest:CXI: 11679 mi / 18795 km
Christmas Island (Kiritimati) [Cassidy Intl], L, KI

Find:

   beyond  
but within

Other Information
Maps:
Sources:

  


 


Great Circle Mapper   Great Circle Mapper
Great Circle Mapper FAQ   Great Circle Mapper FAQ
  Karl's Home Page
KLSē   KLSē Home
   GC on Facebook
Airlines of the World   Airlines of the World
Donate via PayPal


Copyright © 2004-2020, Karl L. Swartz. All rights reserved.
All trademarks mentioned herein belong to their respective owners.

Please see credits for attribution and copyright information.

Karl Swartz <karl@kls2.com>
  Powered by FreeBSD
Valid HTML 4.01!
Labeled with ICRA
hCard Microformat
Geo Microformat